Long Point, IL (61333)

8:15 AM CDT on August 31, 2015 (GMT -0500)
APRSWXNET | | Change Station
CLOSE
Current Station
Personal Weather Station
Location: Streator, IL
Elevation: 557 ft
Nearby Weather Stations

Elev 557 ft 41.13 °N, 88.85 °W | Updated 30 minutes ago

Fog
Fog
63 °F
Feels Like 63 °F
N
0
Wind Variable Wind from SW
Gusts 0.0 mph

Today
High -- | Low -- °F
--% Chance of Precip.
Yesterday
High -- | Low -- °F
Precip. -- in
6:21 AM 7:30 PM
Waning Gibbous, 95% visible
Pressure 30.08 in
Visibility 0.2 miles
Clouds Overcast 300 ft
Dew Point 62 °F
Humidity 98%
Rainfall in
Snow Depth Not available.
UV 0 out of 12
Pollen 10.60 out of 12
Air Quality Not available.
Flu Activity Not available.
METAR KPNT 311215Z AUTO 00000KT 1/4SM FG OVC003 18/18 A3008 RMK AO2 T01750175
Pressure 30.08 in
Visibility 0.2 miles
Clouds Overcast 300 ft
Dew Point 62 °F
Humidity 98%
Rainfall in
Snow Depth Not available.
UV 0 out of 12
Pollen 10.60 out of 12
Air Quality Not available.
Flu Activity Not available.
METAR KPNT 311215Z AUTO 00000KT 1/4SM FG OVC003 18/18 A3008 RMK AO2 T01750175
Nowcast | as of 6:51 am CDT on August 31, 2015

Patchy dense fog will likely persist over the next couple of hours across northern Illinois and Northwest Indiana. Motorists should be prepared to encounter sudden reductions in visibility to around one half mile at times.

×

10-Day Weather Forecast

×

Almanac

Astronomy

Aug. 31, 2015 Rise Set
Actual Time
Civil Twilight
Nautical Twilight
Astronomical Twilight
Moon
Length of Visible Light
Length of Day
Tomorrow will be .
, % of the Moon is Illuminated

Today's Extremes

State Highs State Lows

Community

WunderPhotos

Upload Photos

1,851,226 photos uploaded!

WunderBlogs® & News

Nearby

Air Quality

  Air Quality AQ Index Pollutant
Not available.

Snow Depth

Station Depth Elevation

Earthquake Activity

City Distance Mag. Time & Date
Minimum magnitude displayed is 2.5.

Coastal Water Temperatures

Place Temperature

Stations

Nearby Weather Stations

Station Location Temp. Windchill Dew Point Humidity Wind Precip. Elev Updated Type